Time;durP1;ratioP1;P1;durP2;ratioP2;P2;SDS_P1;SDS_P2;PMS_P1;PMS_P2;Temp;Humidity;BMP_temperature;BMP_pressure;BME280_temperature;BME280_humidity;BME280_pressure;Samples;Min_cycle;Max_cycle;Signal;HPM_P1;HPM_P2
2023/06/05 00:00:33;;;;;;;10.18;1.83;;;;;;;;;;4988912;28;20017;-88
2023/06/05 00:02:59;;;;;;;2.17;1.10;;;;;;;;;;4985658;28;20031;-88
2023/06/05 00:05:25;;;;;;;1.60;0.88;;;;;;;;;;4987497;28;20292;-90
2023/06/05 00:07:50;;;;;;;3.60;1.20;;;;;;;;;;4957022;28;20037;-89
2023/06/05 00:10:16;;;;;;;4.37;1.40;;;;;;;;;;4976946;28;20105;-88
2023/06/05 00:12:41;;;;;;;3.40;1.65;;;;;;;;;;4968402;28;20281;-88
2023/06/05 00:15:06;;;;;;;4.93;1.67;;;;;;;;;;4955559;28;20113;-88
2023/06/05 00:17:31;;;;;;;4.32;1.20;;;;;;;;;;4957323;28;20254;-89
2023/06/05 00:20:00;;;;;;;4.43;1.25;;;;;;;;;;4957973;28;20410;-87
2023/06/05 00:22:28;;;;;;;2.78;1.20;;;;;;;;;;4948831;28;20031;-89
2023/06/05 00:24:53;;;;;;;4.10;1.17;;;;;;;;;;4962540;28;20113;-88
2023/06/05 00:27:19;;;;;;;4.35;1.33;;;;;;;;;;4964549;28;20058;-88
2023/06/05 00:29:44;;;;;;;6.15;1.30;;;;;;;;;;4964343;28;20078;-87
2023/06/05 00:32:10;;;;;;;3.55;1.23;;;;;;;;;;4966024;28;20031;-87
2023/06/05 00:34:35;;;;;;;4.28;1.02;;;;;;;;;;4984973;28;20405;-87
2023/06/05 00:37:00;;;;;;;4.80;1.98;;;;;;;;;;4982537;28;20026;-88
2023/06/05 00:39:25;;;;;;;5.40;1.27;;;;;;;;;;4968054;28;20031;-88
2023/06/05 00:41:50;;;;;;;5.07;1.20;;;;;;;;;;4983089;28;20278;-88
2023/06/05 00:44:17;;;;;;;3.17;1.73;;;;;;;;;;4977581;28;20639;-87
2023/06/05 00:46:43;;;;;;;3.45;1.40;;;;;;;;;;4975601;28;20273;-87
2023/06/05 00:49:08;;;;;;;2.30;1.23;;;;;;;;;;4976153;28;20038;-88
2023/06/05 00:51:34;;;;;;;9.10;2.22;;;;;;;;;;4959889;28;20158;-88
2023/06/05 00:53:59;;;;;;;4.32;1.60;;;;;;;;;;4973124;28;20015;-88
2023/06/05 00:56:25;;;;;;;3.97;1.27;;;;;;;;;;5014280;28;20018;-87
2023/06/05 00:58:50;;;;;;;10.23;1.50;;;;;;;;;;4983750;28;20019;-86
2023/06/05 01:01:16;;;;;;;5.07;1.93;;;;;;;;;;4970583;28;20274;-87
2023/06/05 01:03:44;;;;;;;4.00;1.42;;;;;;;;;;4990250;28;20269;-87
2023/06/05 01:06:11;;;;;;;8.38;1.45;;;;;;;;;;4984723;28;20064;-87
2023/06/05 01:08:41;;;;;;;2.95;1.30;;;;;;;;;;5006984;28;20026;-88
2023/06/05 01:11:13;;;;;;;8.43;1.73;;;;;;;;;;5006023;28;20027;-87
2023/06/05 01:13:40;;;;;;;3.15;1.30;;;;;;;;;;4998004;28;20026;-87
2023/06/05 01:16:09;;;;;;;2.00;1.17;;;;;;;;;;5003116;28;20049;-87
2023/06/05 01:18:35;;;;;;;3.88;1.50;;;;;;;;;;5005376;28;20101;-87
2023/06/05 01:21:01;;;;;;;3.17;1.30;;;;;;;;;;5007526;28;20014;-88
2023/06/05 01:23:29;;;;;;;2.47;1.20;;;;;;;;;;5000071;28;20061;-87
2023/06/05 01:25:56;;;;;;;8.63;1.50;;;;;;;;;;5007075;28;20022;-87
2023/06/05 01:28:25;;;;;;;3.70;1.65;;;;;;;;;;4996443;28;20026;-89
2023/06/05 01:30:54;;;;;;;3.20;1.23;;;;;;;;;;4985947;28;20082;-89
2023/06/05 01:33:25;;;;;;;5.22;1.25;;;;;;;;;;4993940;28;20312;-87
2023/06/05 01:35:51;;;;;;;6.32;1.30;;;;;;;;;;4995526;28;20010;-88
2023/06/05 01:38:17;;;;;;;6.28;1.58;;;;;;;;;;4994226;28;20022;-89
2023/06/05 01:40:42;;;;;;;2.90;1.13;;;;;;;;;;4994665;28;20022;-88
2023/06/05 01:43:08;;;;;;;3.55;1.45;;;;;;;;;;4989391;28;20018;-88
2023/06/05 01:45:37;;;;;;;3.63;1.42;;;;;;;;;;4994645;28;20084;-89
2023/06/05 01:48:03;;;;;;;3.72;1.83;;;;;;;;;;5004472;28;20019;-89
2023/06/05 01:50:32;;;;;;;3.45;1.60;;;;;;;;;;5000807;28;20018;-89
2023/06/05 01:53:00;;;;;;;3.92;1.40;;;;;;;;;;5004052;28;20267;-88
2023/06/05 01:55:26;;;;;;;2.83;1.35;;;;;;;;;;5005896;28;20731;-88
2023/06/05 01:57:52;;;;;;;2.78;1.50;;;;;;;;;;5001476;28;20022;-89
2023/06/05 02:00:17;;;;;;;3.40;1.40;;;;;;;;;;4993634;28;20018;-88
2023/06/05 02:02:43;;;;;;;2.58;1.33;;;;;;;;;;4990649;28;20018;-89
2023/06/05 02:05:08;;;;;;;9.45;1.67;;;;;;;;;;4980172;28;20040;-88
2023/06/05 02:07:38;;;;;;;9.45;1.40;;;;;;;;;;4972134;28;20049;-89
2023/06/05 02:10:05;;;;;;;4.88;1.33;;;;;;;;;;4976297;28;20027;-89
2023/06/05 02:12:30;;;;;;;3.80;1.58;;;;;;;;;;4954974;28;20030;-88
2023/06/05 02:14:56;;;;;;;4.30;1.63;;;;;;;;;;4965482;28;20027;-89
2023/06/05 02:17:24;;;;;;;2.38;1.40;;;;;;;;;;4977829;28;20072;-89
2023/06/05 02:19:49;;;;;;;4.82;1.20;;;;;;;;;;4955577;28;20018;-89
2023/06/05 02:22:15;;;;;;;4.18;1.60;;;;;;;;;;4978241;28;20117;-89
2023/06/05 02:24:40;;;;;;;2.65;1.45;;;;;;;;;;4956570;28;20702;-89
2023/06/05 02:27:08;;;;;;;7.57;1.37;;;;;;;;;;4978743;28;20418;-89
2023/06/05 02:29:33;;;;;;;3.72;1.45;;;;;;;;;;4974720;28;20292;-89
2023/06/05 02:31:58;;;;;;;4.35;1.50;;;;;;;;;;4958765;28;20028;-89
2023/06/05 02:34:24;;;;;;;8.00;2.13;;;;;;;;;;4985789;28;20032;-89
2023/06/05 02:36:50;;;;;;;3.53;1.58;;;;;;;;;;4987734;28;20776;-89
2023/06/05 02:39:15;;;;;;;5.10;1.55;;;;;;;;;;4953329;28;20053;-89
2023/06/05 02:41:40;;;;;;;4.37;1.43;;;;;;;;;;4948291;28;20607;-90
2023/06/05 02:44:05;;;;;;;3.50;1.48;;;;;;;;;;4975600;28;20285;-89
2023/06/05 02:46:31;;;;;;;2.70;1.10;;;;;;;;;;4960235;28;20031;-89
2023/06/05 02:48:56;;;;;;;5.25;1.70;;;;;;;;;;4965273;28;20294;-89
2023/06/05 02:51:21;;;;;;;3.00;1.65;;;;;;;;;;4968141;28;20023;-89
2023/06/05 02:53:46;;;;;;;7.80;2.27;;;;;;;;;;4969471;28;20035;-89
2023/06/05 02:56:13;;;;;;;8.17;1.73;;;;;;;;;;4954963;28;20253;-90
2023/06/05 02:58:39;;;;;;;5.80;1.67;;;;;;;;;;4976003;28;20353;-90
2023/06/05 03:01:08;;;;;;;4.20;1.92;;;;;;;;;;4959503;28;20490;-90
2023/06/05 03:03:33;;;;;;;6.55;2.17;;;;;;;;;;4980040;28;20112;-89
2023/06/05 03:06:04;;;;;;;9.50;1.60;;;;;;;;;;4971595;28;20098;-89
2023/06/05 03:08:35;;;;;;;6.07;1.80;;;;;;;;;;4976669;28;20078;-89
2023/06/05 03:11:01;;;;;;;5.18;2.03;;;;;;;;;;4987663;28;20025;-89
2023/06/05 03:13:26;;;;;;;5.25;1.90;;;;;;;;;;4986624;28;20018;-89
2023/06/05 03:15:53;;;;;;;6.15;2.17;;;;;;;;;;4988771;28;20113;-89
2023/06/05 03:18:18;;;;;;;6.85;2.05;;;;;;;;;;4988121;28;20030;-89
2023/06/05 03:20:44;;;;;;;11.43;2.50;;;;;;;;;;4989751;28;20014;-89
2023/06/05 03:23:09;;;;;;;5.80;1.70;;;;;;;;;;4978884;28;20030;-89
2023/06/05 03:25:34;;;;;;;5.15;1.83;;;;;;;;;;4984314;28;20294;-89
2023/06/05 03:27:59;;;;;;;6.33;1.73;;;;;;;;;;4987444;28;20019;-90
2023/06/05 03:30:24;;;;;;;8.00;2.10;;;;;;;;;;4988682;28;20607;-89
2023/06/05 03:32:50;;;;;;;5.72;2.17;;;;;;;;;;4991190;28;20033;-89
2023/06/05 03:35:17;;;;;;;7.53;2.00;;;;;;;;;;4981851;28;20030;-89
2023/06/05 03:37:42;;;;;;;6.25;1.52;;;;;;;;;;4992053;28;20552;-90
2023/06/05 03:40:08;;;;;;;4.43;2.00;;;;;;;;;;4992082;28;20031;-89
2023/06/05 03:42:34;;;;;;;6.43;2.03;;;;;;;;;;4988648;28;20270;-89
2023/06/05 03:44:59;;;;;;;6.13;1.80;;;;;;;;;;4987286;28;20141;-89
2023/06/05 03:47:24;;;;;;;8.48;3.08;;;;;;;;;;4988718;28;20470;-89
2023/06/05 03:49:50;;;;;;;4.30;2.28;;;;;;;;;;4979575;28;20022;-89
2023/06/05 03:52:15;;;;;;;9.10;2.30;;;;;;;;;;4987828;28;20024;-89
2023/06/05 03:54:40;;;;;;;3.28;1.75;;;;;;;;;;4982814;28;20122;-90
2023/06/05 03:57:09;;;;;;;8.77;2.40;;;;;;;;;;4985912;28;20033;-89
2023/06/05 03:59:34;;;;;;;5.53;1.90;;;;;;;;;;4982352;28;20076;-89
2023/06/05 04:02:00;;;;;;;7.93;2.28;;;;;;;;;;4980736;28;20034;-90
2023/06/05 04:04:25;;;;;;;8.65;2.92;;;;;;;;;;4982750;28;20033;-89
2023/06/05 04:06:53;;;;;;;8.52;2.10;;;;;;;;;;4965784;28;20156;-88
2023/06/05 04:09:19;;;;;;;5.05;2.03;;;;;;;;;;4947103;28;20019;-89
2023/06/05 04:11:44;;;;;;;5.83;1.93;;;;;;;;;;4952849;28;20023;-89
2023/06/05 04:14:10;;;;;;;5.50;1.83;;;;;;;;;;4951123;28;20842;-89
2023/06/05 04:16:38;;;;;;;3.83;1.92;;;;;;;;;;4957870;28;20027;-88
2023/06/05 04:19:04;;;;;;;5.93;2.95;;;;;;;;;;4951562;28;20109;-89
2023/06/05 04:21:29;;;;;;;4.60;2.00;;;;;;;;;;4964396;28;20447;-89
2023/06/05 04:23:54;;;;;;;8.65;2.67;;;;;;;;;;4968971;28;20397;-89
2023/06/05 04:26:20;;;;;;;3.00;1.60;;;;;;;;;;4974576;28;20447;-89
2023/06/05 04:28:50;;;;;;;7.60;2.13;;;;;;;;;;4946421;28;20033;-89
2023/06/05 04:31:15;;;;;;;8.40;2.20;;;;;;;;;;4956628;28;20430;-89
2023/06/05 04:33:41;;;;;;;8.98;2.25;;;;;;;;;;4945375;28;20031;-89
2023/06/05 04:36:06;;;;;;;9.05;2.25;;;;;;;;;;4965954;28;20018;-89
2023/06/05 04:38:32;;;;;;;5.85;2.35;;;;;;;;;;4972558;28;20023;-89
2023/06/05 04:40:57;;;;;;;6.68;1.92;;;;;;;;;;4948865;28;20019;-89
2023/06/05 04:43:22;;;;;;;6.40;2.50;;;;;;;;;;4949611;28;20490;-89
2023/06/05 04:45:48;;;;;;;11.18;2.38;;;;;;;;;;4968138;28;20146;-89
2023/06/05 04:48:13;;;;;;;4.90;2.75;;;;;;;;;;4954160;28;20034;-89
2023/06/05 04:50:38;;;;;;;6.70;2.80;;;;;;;;;;4966186;28;20105;-90
2023/06/05 04:53:03;;;;;;;6.15;2.55;;;;;;;;;;4953577;28;20925;-89
2023/06/05 04:55:29;;;;;;;5.05;2.08;;;;;;;;;;4977097;28;20026;-90
2023/06/05 04:57:54;;;;;;;10.25;2.80;;;;;;;;;;4957190;28;20018;-89
2023/06/05 05:00:19;;;;;;;11.03;2.50;;;;;;;;;;4963903;28;20019;-89
2023/06/05 05:02:45;;;;;;;6.53;2.42;;;;;;;;;;4942192;28;20774;-89
2023/06/05 05:05:13;;;;;;;8.73;3.90;;;;;;;;;;4957424;28;20049;-89
2023/06/05 05:07:38;;;;;;;7.20;2.72;;;;;;;;;;4986529;28;20531;-89
2023/06/05 05:10:03;;;;;;;6.70;2.67;;;;;;;;;;4983197;28;20121;-89
2023/06/05 05:12:29;;;;;;;8.18;2.78;;;;;;;;;;4980182;28;20429;-89
2023/06/05 05:14:55;;;;;;;8.38;2.63;;;;;;;;;;4987824;28;20030;-89
2023/06/05 05:17:20;;;;;;;3.78;2.22;;;;;;;;;;4983438;28;20061;-89
2023/06/05 05:19:45;;;;;;;12.25;2.88;;;;;;;;;;4979669;28;20023;-88
2023/06/05 05:22:11;;;;;;;6.05;2.20;;;;;;;;;;4984486;28;20025;-89
2023/06/05 05:24:36;;;;;;;8.57;2.72;;;;;;;;;;4987510;28;20045;-89
2023/06/05 05:27:01;;;;;;;11.18;2.42;;;;;;;;;;4977446;28;20027;-89
2023/06/05 05:29:27;;;;;;;6.15;2.42;;;;;;;;;;4984236;28;20026;-89
2023/06/05 05:31:52;;;;;;;7.35;2.30;;;;;;;;;;4977579;28;20042;-89
2023/06/05 05:34:18;;;;;;;5.55;2.30;;;;;;;;;;4981488;28;20404;-88
2023/06/05 05:36:43;;;;;;;9.38;2.72;;;;;;;;;;4978410;28;20015;-88
2023/06/05 05:39:08;;;;;;;5.47;2.90;;;;;;;;;;4982143;28;20033;-88
2023/06/05 05:41:39;;;;;;;14.10;2.40;;;;;;;;;;4979631;28;20292;-89
2023/06/05 05:44:07;;;;;;;8.55;2.30;;;;;;;;;;4986515;28;20030;-89
2023/06/05 05:46:32;;;;;;;7.95;2.25;;;;;;;;;;4984860;28;20026;-89
2023/06/05 05:48:57;;;;;;;10.50;2.30;;;;;;;;;;4986459;28;20113;-89
2023/06/05 05:51:25;;;;;;;7.20;2.87;;;;;;;;;;4987680;28;20093;-89
2023/06/05 05:54:02;;;;;;;9.90;3.67;;;;;;;;;;4983043;28;20723;-89
2023/06/05 05:56:27;;;;;;;5.65;2.35;;;;;;;;;;4981828;28;20026;-89
2023/06/05 05:58:52;;;;;;;7.23;1.90;;;;;;;;;;4982833;28;20014;-88
2023/06/05 06:01:17;;;;;;;7.37;2.50;;;;;;;;;;4979334;28;20270;-88
2023/06/05 06:03:43;;;;;;;6.97;2.20;;;;;;;;;;4980728;28;20698;-88
2023/06/05 06:06:08;;;;;;;6.78;2.47;;;;;;;;;;4986225;28;20851;-88
2023/06/05 06:08:34;;;;;;;8.35;2.30;;;;;;;;;;4978179;28;20026;-88
2023/06/05 06:11:00;;;;;;;5.15;2.20;;;;;;;;;;4984925;28;20448;-87
2023/06/05 06:13:26;;;;;;;11.18;2.25;;;;;;;;;;4983666;28;20022;-87
2023/06/05 06:15:51;;;;;;;6.13;2.40;;;;;;;;;;4987423;28;20010;-88
2023/06/05 06:18:16;;;;;;;5.43;2.47;;;;;;;;;;4990415;28;20101;-88
2023/06/05 06:20:41;;;;;;;5.13;1.70;;;;;;;;;;4999728;28;20460;-88
2023/06/05 06:23:07;;;;;;;8.00;2.45;;;;;;;;;;4987524;28;20034;-88
2023/06/05 06:25:32;;;;;;;10.45;2.88;;;;;;;;;;4987902;28;20030;-88
2023/06/05 06:28:00;;;;;;;11.67;2.63;;;;;;;;;;4988079;28;20109;-88
2023/06/05 06:30:25;;;;;;;7.50;2.47;;;;;;;;;;4982487;28;20305;-87
2023/06/05 06:32:51;;;;;;;10.88;2.85;;;;;;;;;;4983500;28;20442;-88
2023/06/05 06:35:16;;;;;;;4.25;2.03;;;;;;;;;;4990178;28;20052;-88
2023/06/05 06:37:41;;;;;;;9.65;2.88;;;;;;;;;;4989406;28;20014;-88
2023/06/05 06:40:10;;;;;;;6.22;2.40;;;;;;;;;;4983730;28;20026;-88
2023/06/05 06:42:36;;;;;;;7.10;2.47;;;;;;;;;;4990542;28;20010;-89
2023/06/05 06:45:01;;;;;;;10.65;2.60;;;;;;;;;;4985094;28;20088;-86
2023/06/05 06:47:26;;;;;;;6.53;2.70;;;;;;;;;;4985792;28;20034;-87
2023/06/05 06:49:52;;;;;;;5.47;2.65;;;;;;;;;;4986330;28;20478;-87
2023/06/05 06:52:19;;;;;;;6.20;1.88;;;;;;;;;;4989073;28;20026;-87
2023/06/05 06:54:45;;;;;;;6.75;2.17;;;;;;;;;;4986182;28;20105;-86
2023/06/05 06:57:10;;;;;;;7.95;2.13;;;;;;;;;;4986956;28;20110;-86
2023/06/05 06:59:35;;;;;;;13.87;2.80;;;;;;;;;;4984983;28;20014;-87
2023/06/05 07:02:11;;;;;;;6.70;2.75;;;;;;;;;;4986030;28;20508;-87
2023/06/05 07:04:38;;;;;;;8.38;2.85;;;;;;;;;;4984414;28;20421;-88
2023/06/05 07:07:03;;;;;;;8.20;3.15;;;;;;;;;;4987613;28;20117;-87
2023/06/05 07:09:28;;;;;;;10.98;2.50;;;;;;;;;;4981700;28;20468;-87
2023/06/05 07:11:54;;;;;;;8.43;2.53;;;;;;;;;;4983917;28;20457;-87
2023/06/05 07:14:19;;;;;;;7.97;2.67;;;;;;;;;;4985512;28;20292;-87
2023/06/05 07:16:45;;;;;;;6.60;2.50;;;;;;;;;;4985877;28;20441;-87
2023/06/05 07:19:10;;;;;;;7.88;2.45;;;;;;;;;;4985425;28;20018;-88
2023/06/05 07:21:37;;;;;;;8.70;2.50;;;;;;;;;;4998560;28;20014;-87
2023/06/05 07:24:03;;;;;;;6.13;2.50;;;;;;;;;;4985091;28;20098;-87
2023/06/05 07:26:29;;;;;;;7.80;2.20;;;;;;;;;;4983846;28;20034;-87
2023/06/05 07:28:54;;;;;;;17.30;2.67;;;;;;;;;;4979714;28;20181;-87
2023/06/05 07:31:21;;;;;;;4.07;2.22;;;;;;;;;;4980292;28;20041;-86
2023/06/05 07:33:46;;;;;;;10.63;2.22;;;;;;;;;;4984304;28;20026;-87
2023/06/05 07:36:11;;;;;;;7.38;2.35;;;;;;;;;;4987735;28;20030;-87
2023/06/05 07:38:38;;;;;;;8.20;2.60;;;;;;;;;;4987423;28;20018;-88
2023/06/05 07:41:03;;;;;;;7.70;2.40;;;;;;;;;;4985715;28;20022;-87
2023/06/05 07:43:28;;;;;;;5.57;2.80;;;;;;;;;;4987826;28;20038;-87
2023/06/05 07:45:54;;;;;;;8.13;2.67;;;;;;;;;;4989890;28;20260;-88
2023/06/05 07:48:19;;;;;;;7.10;2.70;;;;;;;;;;4987798;28;20318;-88
2023/06/05 07:50:45;;;;;;;8.20;2.60;;;;;;;;;;4985816;28;20533;-88
2023/06/05 07:53:10;;;;;;;6.95;2.22;;;;;;;;;;4983868;28;20026;-88
2023/06/05 07:55:36;;;;;;;5.70;2.13;;;;;;;;;;4983453;28;20030;-88
2023/06/05 07:58:01;;;;;;;10.70;2.72;;;;;;;;;;4985322;28;20026;-89
2023/06/05 08:00:26;;;;;;;4.10;1.88;;;;;;;;;;4982328;28;20065;-88
2023/06/05 08:02:53;;;;;;;5.95;1.95;;;;;;;;;;4985484;28;20018;-87
2023/06/05 08:05:19;;;;;;;3.83;2.03;;;;;;;;;;4984255;28;20033;-88
2023/06/05 08:07:44;;;;;;;8.35;2.15;;;;;;;;;;4987555;28;20026;-87
2023/06/05 08:10:09;;;;;;;6.50;2.20;;;;;;;;;;4982941;28;20033;-88
2023/06/05 08:12:34;;;;;;;5.72;2.28;;;;;;;;;;4985641;28;20280;-87
2023/06/05 08:15:00;;;;;;;6.15;1.88;;;;;;;;;;4984285;28;20101;-87
2023/06/05 08:17:25;;;;;;;6.63;2.10;;;;;;;;;;4987347;28;20014;-87
2023/06/05 08:19:50;;;;;;;7.65;1.83;;;;;;;;;;4981777;28;20049;-88
2023/06/05 08:22:15;;;;;;;8.50;2.28;;;;;;;;;;4977696;28;20033;-87
2023/06/05 08:24:41;;;;;;;4.63;2.17;;;;;;;;;;4983003;28;20589;-87
2023/06/05 08:27:07;;;;;;;9.37;2.33;;;;;;;;;;4987355;28;20270;-88
2023/06/05 08:29:36;;;;;;;5.75;2.72;;;;;;;;;;4982925;28;20036;-88
2023/06/05 08:32:01;;;;;;;7.38;2.17;;;;;;;;;;4982300;28;20048;-88
2023/06/05 08:34:26;;;;;;;12.75;2.22;;;;;;;;;;4984827;28;20035;-87
2023/06/05 08:36:52;;;;;;;10.27;2.33;;;;;;;;;;4982595;28;20105;-88
2023/06/05 08:39:17;;;;;;;5.57;2.30;;;;;;;;;;4978685;28;20308;-87
2023/06/05 08:41:43;;;;;;;4.97;2.20;;;;;;;;;;4985340;28;20089;-87
2023/06/05 08:44:10;;;;;;;9.02;2.45;;;;;;;;;;4986505;28;20547;-88
2023/06/05 08:46:36;;;;;;;10.68;2.72;;;;;;;;;;4974933;28;20387;-88
2023/06/05 08:49:06;;;;;;;7.00;2.17;;;;;;;;;;4981265;28;20038;-88
2023/06/05 08:51:31;;;;;;;3.70;1.95;;;;;;;;;;4984653;28;20391;-87
2023/06/05 08:54:02;;;;;;;8.32;1.98;;;;;;;;;;4987827;28;20026;-88
2023/06/05 08:56:28;;;;;;;6.25;2.00;;;;;;;;;;4987038;28;20026;-87
2023/06/05 08:58:55;;;;;;;8.57;2.30;;;;;;;;;;4980044;28;20157;-88
2023/06/05 09:01:20;;;;;;;8.57;2.30;;;;;;;;;;4980448;28;20026;-88
2023/06/05 09:03:45;;;;;;;5.78;2.15;;;;;;;;;;4982748;28;20138;-88
2023/06/05 09:06:11;;;;;;;4.97;2.00;;;;;;;;;;4980872;28;20070;-88
2023/06/05 09:08:36;;;;;;;6.78;2.00;;;;;;;;;;4977049;28;20405;-88
2023/06/05 09:11:20;;;;;;;5.30;2.13;;;;;;;;;;4978000;28;20022;-88
2023/06/05 09:13:46;;;;;;;10.65;2.10;;;;;;;;;;4970458;28;20034;-89
2023/06/05 09:16:11;;;;;;;4.15;1.67;;;;;;;;;;4980110;28;20513;-88
2023/06/05 09:18:50;;;;;;;15.23;2.10;;;;;;;;;;4988020;28;20034;-88
2023/06/05 09:21:15;;;;;;;3.67;1.73;;;;;;;;;;4983836;28;20285;-88
2023/06/05 09:23:41;;;;;;;10.03;2.10;;;;;;;;;;4987871;28;20029;-88
2023/06/05 09:26:09;;;;;;;13.15;2.25;;;;;;;;;;4983993;28;20273;-88
2023/06/05 09:28:34;;;;;;;4.95;1.50;;;;;;;;;;4980950;28;20066;-89
2023/06/05 09:31:04;;;;;;;3.88;1.70;;;;;;;;;;4988592;28;20091;-88
2023/06/05 09:33:30;;;;;;;5.50;2.10;;;;;;;;;;4981817;28;20030;-87
2023/06/05 09:36:09;;;;;;;9.15;1.92;;;;;;;;;;4989609;28;20029;-89
2023/06/05 09:38:35;;;;;;;4.10;1.83;;;;;;;;;;4988503;28;20080;-87
2023/06/05 09:41:01;;;;;;;3.58;1.67;;;;;;;;;;4986418;28;20636;-88
2023/06/05 09:43:26;;;;;;;3.20;1.85;;;;;;;;;;4984620;28;20023;-87
2023/06/05 09:45:51;;;;;;;6.47;2.43;;;;;;;;;;4984368;28;20022;-89
2023/06/05 09:48:17;;;;;;;3.15;1.60;;;;;;;;;;4987335;28;20398;-87
2023/06/05 09:50:42;;;;;;;3.20;1.60;;;;;;;;;;4988406;28;20077;-87
2023/06/05 09:53:12;;;;;;;3.53;1.73;;;;;;;;;;4987265;28;20027;-87
2023/06/05 09:55:38;;;;;;;4.03;2.17;;;;;;;;;;4986312;28;20504;-87
2023/06/05 09:58:10;;;;;;;3.92;1.63;;;;;;;;;;4988015;28;20026;-88
2023/06/05 10:00:36;;;;;;;2.85;1.65;;;;;;;;;;4991037;28;20019;-89
2023/06/05 10:03:03;;;;;;;7.38;2.67;;;;;;;;;;4985202;28;20022;-87
2023/06/05 10:05:28;;;;;;;5.28;1.73;;;;;;;;;;4987977;28;20045;-85
2023/06/05 10:07:55;;;;;;;6.82;1.70;;;;;;;;;;4984816;28;20398;-89
2023/06/05 10:10:20;;;;;;;2.63;1.90;;;;;;;;;;4987547;28;20030;-88
2023/06/05 10:12:46;;;;;;;3.58;1.70;;;;;;;;;;4989180;28;20030;-88
2023/06/05 10:15:11;;;;;;;2.03;1.20;;;;;;;;;;4981815;28;20040;-87
2023/06/05 10:17:38;;;;;;;6.40;1.55;;;;;;;;;;4984510;28;20033;-87
2023/06/05 10:20:06;;;;;;;4.25;1.77;;;;;;;;;;4985823;28;20537;-89
2023/06/05 10:22:32;;;;;;;2.38;1.42;;;;;;;;;;4989492;28;20088;-88
2023/06/05 10:25:01;;;;;;;2.97;1.70;;;;;;;;;;4990888;28;20030;-88
2023/06/05 10:27:45;;;;;;;2.50;1.58;;;;;;;;;;4986186;28;20038;-89
2023/06/05 10:30:10;;;;;;;3.47;1.70;;;;;;;;;;4984576;28;20446;-87
2023/06/05 10:32:36;;;;;;;3.83;1.93;;;;;;;;;;4990258;28;20117;-90
2023/06/05 10:35:07;;;;;;;3.38;1.80;;;;;;;;;;4990071;28;20085;-88
2023/06/05 10:37:36;;;;;;;2.65;1.58;;;;;;;;;;4983251;28;20021;-87
2023/06/05 10:40:01;;;;;;;2.00;1.20;;;;;;;;;;4988454;28;20053;-88
2023/06/05 10:42:28;;;;;;;3.13;1.50;;;;;;;;;;4987470;28;20049;-88
2023/06/05 10:44:53;;;;;;;2.85;1.45;;;;;;;;;;4988168;28;20030;-89
2023/06/05 10:47:33;;;;;;;3.55;1.60;;;;;;;;;;4982781;28;20041;-88
2023/06/05 10:50:31;;;;;;;5.18;1.80;;;;;;;;;;4983534;28;20556;-89
2023/06/05 10:52:57;;;;;;;4.72;1.48;;;;;;;;;;4938312;28;20038;-89
2023/06/05 10:55:23;;;;;;;7.22;2.45;;;;;;;;;;4986437;28;20026;-89
2023/06/05 10:58:00;;;;;;;5.28;1.70;;;;;;;;;;4988664;28;20024;-88
2023/06/05 11:00:26;;;;;;;5.93;1.90;;;;;;;;;;4985834;28;20121;-87
2023/06/05 11:02:52;;;;;;;3.17;1.40;;;;;;;;;;4987172;28;20057;-88
2023/06/05 11:05:18;;;;;;;3.05;2.13;;;;;;;;;;4989393;28;20130;-88
2023/06/05 11:07:45;;;;;;;13.00;3.58;;;;;;;;;;4983131;28;20537;-88
2023/06/05 11:10:15;;;;;;;3.97;1.95;;;;;;;;;;4984498;28;20084;-88
2023/06/05 11:12:41;;;;;;;3.28;1.50;;;;;;;;;;4987161;28;20149;-88
2023/06/05 11:15:10;;;;;;;3.40;1.60;;;;;;;;;;4986995;28;20496;-89
2023/06/05 11:17:35;;;;;;;8.30;1.48;;;;;;;;;;4983745;28;20113;-88
2023/06/05 11:20:10;;;;;;;2.67;1.40;;;;;;;;;;4985700;28;20605;-89
2023/06/05 11:22:55;;;;;;;2.60;1.45;;;;;;;;;;4987753;28;20022;-89
2023/06/05 11:25:21;;;;;;;6.72;1.52;;;;;;;;;;4988193;28;20508;-87
2023/06/05 11:27:49;;;;;;;10.98;3.67;;;;;;;;;;4988306;28;20033;-88
2023/06/05 11:30:15;;;;;;;3.45;2.00;;;;;;;;;;4981195;28;20489;-87
2023/06/05 11:32:40;;;;;;;6.93;1.95;;;;;;;;;;4988486;28;20026;-88
2023/06/05 11:35:08;;;;;;;3.40;1.95;;;;;;;;;;4988122;28;20029;-89
2023/06/05 11:37:34;;;;;;;3.28;1.38;;;;;;;;;;4987099;28;20022;-88
2023/06/05 11:40:00;;;;;;;4.60;1.83;;;;;;;;;;4987759;28;20058;-88
2023/06/05 11:42:25;;;;;;;4.38;1.80;;;;;;;;;;4987498;28;20031;-88
2023/06/05 11:44:50;;;;;;;4.53;1.90;;;;;;;;;;4986828;28;20030;-91
2023/06/05 11:47:25;;;;;;;5.47;1.73;;;;;;;;;;4986762;28;20030;-89
2023/06/05 11:49:51;;;;;;;3.22;1.90;;;;;;;;;;4984469;28;20100;-90
2023/06/05 11:52:20;;;;;;;4.20;1.77;;;;;;;;;;4989439;28;20490;-90
2023/06/05 11:54:53;;;;;;;6.28;1.77;;;;;;;;;;4988145;28;20018;-88
2023/06/05 11:57:18;;;;;;;3.33;1.60;;;;;;;;;;4980661;28;20401;-88
2023/06/05 11:59:45;;;;;;;7.20;1.85;;;;;;;;;;4986406;28;20015;-89
2023/06/05 12:02:10;;;;;;;4.55;1.85;;;;;;;;;;4985605;28;20022;-89
2023/06/05 12:04:39;;;;;;;6.65;1.67;;;;;;;;;;4985802;28;20022;-90
2023/06/05 12:07:04;;;;;;;6.63;1.95;;;;;;;;;;4985365;28;20022;-88
2023/06/05 12:09:29;;;;;;;2.87;1.90;;;;;;;;;;4986883;28;20030;-89
2023/06/05 12:12:08;;;;;;;6.40;1.58;;;;;;;;;;4986327;28;20279;-89
2023/06/05 12:14:33;;;;;;;3.90;1.83;;;;;;;;;;4982135;28;20074;-89
2023/06/05 12:16:58;;;;;;;3.30;1.73;;;;;;;;;;4986619;28;20104;-87
2023/06/05 12:19:24;;;;;;;4.87;2.00;;;;;;;;;;4986858;28;20042;-89
2023/06/05 12:21:54;;;;;;;9.35;2.00;;;;;;;;;;4987696;28;20273;-89
2023/06/05 12:24:26;;;;;;;4.32;1.70;;;;;;;;;;4988094;28;20026;-88
2023/06/05 12:26:55;;;;;;;11.98;1.98;;;;;;;;;;4985530;28;20019;-87
2023/06/05 12:29:28;;;;;;;5.43;2.17;;;;;;;;;;4981213;28;20041;-88
2023/06/05 12:31:54;;;;;;;8.50;2.20;;;;;;;;;;4982266;28;20053;-88
2023/06/05 12:34:41;;;;;;;7.95;1.80;;;;;;;;;;4986264;28;20112;-90
2023/06/05 12:37:08;;;;;;;8.13;1.77;;;;;;;;;;4988137;28;20101;-88
2023/06/05 12:39:33;;;;;;;4.65;1.98;;;;;;;;;;4980687;28;20409;-88
2023/06/05 12:41:58;;;;;;;3.92;1.80;;;;;;;;;;4984021;28;20079;-88
2023/06/05 12:44:23;;;;;;;4.43;2.03;;;;;;;;;;4984932;28;20065;-89
2023/06/05 12:46:48;;;;;;;8.10;2.30;;;;;;;;;;4982956;28;20365;-87
2023/06/05 12:49:14;;;;;;;6.73;2.00;;;;;;;;;;4982177;28;20305;-88
2023/06/05 12:51:39;;;;;;;4.28;1.80;;;;;;;;;;4988745;28;20474;-88
2023/06/05 12:54:05;;;;;;;5.13;1.60;;;;;;;;;;4988900;28;20033;-87
2023/06/05 12:56:33;;;;;;;5.18;1.85;;;;;;;;;;4990089;28;20027;-87
2023/06/05 12:58:58;;;;;;;10.00;2.22;;;;;;;;;;4985097;28;20026;-87
2023/06/05 13:01:25;;;;;;;5.87;1.87;;;;;;;;;;4984574;28;20021;-89
2023/06/05 13:03:50;;;;;;;4.80;2.00;;;;;;;;;;4989500;28;20308;-87
2023/06/05 13:06:15;;;;;;;2.78;1.40;;;;;;;;;;4986971;28;20026;-88
2023/06/05 13:08:41;;;;;;;4.45;1.80;;;;;;;;;;4991505;28;20072;-88
2023/06/05 13:11:06;;;;;;;5.85;2.05;;;;;;;;;;4979199;28;20022;-88
2023/06/05 13:13:32;;;;;;;9.38;1.80;;;;;;;;;;4982793;28;20073;-88
2023/06/05 13:15:58;;;;;;;8.30;2.22;;;;;;;;;;4987960;28;20023;-87
2023/06/05 13:18:23;;;;;;;4.03;1.70;;;;;;;;;;4986300;28;20397;-88
2023/06/05 13:20:48;;;;;;;3.07;1.57;;;;;;;;;;4989972;28;20054;-89
2023/06/05 13:23:13;;;;;;;6.60;1.87;;;;;;;;;;4988686;28;20404;-89
2023/06/05 13:25:39;;;;;;;7.47;2.35;;;;;;;;;;4982341;28;20048;-89
2023/06/05 13:28:06;;;;;;;2.78;1.60;;;;;;;;;;4979496;28;20022;-88
2023/06/05 13:30:31;;;;;;;9.38;1.95;;;;;;;;;;4988150;28;20028;-86
2023/06/05 13:32:57;;;;;;;4.67;2.07;;;;;;;;;;4992077;28;20093;-88
2023/06/05 13:35:22;;;;;;;5.47;1.70;;;;;;;;;;4990456;28;20278;-88
2023/06/05 13:37:49;;;;;;;3.90;1.90;;;;;;;;;;4986582;28;20045;-87
2023/06/05 13:40:15;;;;;;;5.32;2.00;;;;;;;;;;4986160;28;20018;-87
2023/06/05 13:42:47;;;;;;;4.90;1.90;;;;;;;;;;4988993;28;20121;-88
2023/06/05 13:45:13;;;;;;;7.72;1.80;;;;;;;;;;4985265;28;20030;-87
2023/06/05 13:47:41;;;;;;;10.77;1.80;;;;;;;;;;4989124;28;20026;-86
2023/06/05 13:50:06;;;;;;;10.00;2.00;;;;;;;;;;4990480;28;20026;-88
2023/06/05 13:52:32;;;;;;;3.55;1.50;;;;;;;;;;4991456;28;20033;-87
2023/06/05 13:54:57;;;;;;;4.53;1.73;;;;;;;;;;4990005;28;20401;-88
2023/06/05 13:57:23;;;;;;;4.40;1.92;;;;;;;;;;4988412;28;20445;-88
2023/06/05 13:59:48;;;;;;;4.97;1.98;;;;;;;;;;4984014;28;20810;-86
2023/06/05 14:02:17;;;;;;;4.22;2.10;;;;;;;;;;4984380;28;20042;-87
2023/06/05 14:04:42;;;;;;;4.47;1.90;;;;;;;;;;4990721;28;20023;-87
2023/06/05 14:07:09;;;;;;;4.53;2.13;;;;;;;;;;4987309;28;20046;-89
2023/06/05 14:09:38;;;;;;;4.35;1.73;;;;;;;;;;4985630;28;20023;-86
2023/06/05 14:12:03;;;;;;;5.85;1.60;;;;;;;;;;4991753;28;20018;-89
2023/06/05 14:14:29;;;;;;;7.75;2.13;;;;;;;;;;4989239;28;20478;-87
2023/06/05 14:16:54;;;;;;;3.95;1.70;;;;;;;;;;4996541;28;20026;-87
2023/06/05 14:19:20;;;;;;;5.00;1.65;;;;;;;;;;4984737;28;20018;-86
2023/06/05 14:21:46;;;;;;;3.78;1.67;;;;;;;;;;4989148;28;20037;-88
2023/06/05 14:24:12;;;;;;;9.02;1.58;;;;;;;;;;4988808;28;20549;-87
2023/06/05 14:26:37;;;;;;;3.28;1.60;;;;;;;;;;4986051;28;20453;-87
2023/06/05 14:29:03;;;;;;;10.60;1.83;;;;;;;;;;4991980;28;20014;-88
2023/06/05 14:31:28;;;;;;;7.63;2.00;;;;;;;;;;4985013;28;20105;-88
2023/06/05 14:33:53;;;;;;;5.03;1.70;;;;;;;;;;4986912;28;20053;-86
2023/06/05 14:36:21;;;;;;;4.05;1.90;;;;;;;;;;4986348;28;20026;-86